Terminal Aerodrome Forecast
Issued by NWS Bismarck, ND

Home | Current Version | Previous Version | Graphics & Text | Print | Product List | Glossary On
Versions: 1 2 3 4 5 6 7 8 9 10 11 12 13 14 15 16 17 18 19
000
FTUS43 KBIS 050250 AAA
TAFBIS
TAF AMD
KBIS 050250Z 0503/0524 15005KT P6SM SCT100
     FM050800 11007KT P6SM SCT110
     FM051600 15018G26KT P6SM SCT080 BKN120=

USA.gov is the U.S. government's official web portal to all federal, state and local government web resources and services.